sensor_id;sensor_type;location;lat;lon;timestamp;pressure;altitude;pressure_sealevel;temperature;humidity
75192;BME280;63771;52.580;9.734;2023-07-28T00:02:12;99896.97;;;17.76;100.00
75192;BME280;63771;52.580;9.734;2023-07-28T00:04:37;99889.91;;;17.71;100.00
75192;BME280;63771;52.580;9.734;2023-07-28T00:07:04;99889.91;;;17.71;100.00
75192;BME280;63771;52.580;9.734;2023-07-28T00:09:30;99890.78;;;17.72;100.00
75192;BME280;63771;52.580;9.734;2023-07-28T00:11:57;99889.16;;;17.74;100.00
75192;BME280;63771;52.580;9.734;2023-07-28T00:14:22;99896.16;;;17.77;100.00
75192;BME280;63771;52.580;9.734;2023-07-28T00:16:50;99888.41;;;17.77;100.00
75192;BME280;63771;52.580;9.734;2023-07-28T00:19:15;99888.50;;;17.80;100.00
75192;BME280;63771;52.580;9.734;2023-07-28T00:21:40;99895.38;;;17.79;100.00
75192;BME280;63771;52.580;9.734;2023-07-28T00:24:06;99888.50;;;17.80;100.00
75192;BME280;63771;52.580;9.734;2023-07-28T00:26:31;99885.00;;;17.78;100.00
75192;BME280;63771;52.580;9.734;2023-07-28T00:28:56;99893.34;;;17.72;100.00
75192;BME280;63771;52.580;9.734;2023-07-28T00:31:23;99888.94;;;17.69;100.00
75192;BME280;63771;52.580;9.734;2023-07-28T00:33:48;99888.06;;;17.69;100.00
75192;BME280;63771;52.580;9.734;2023-07-28T00:36:13;99892.34;;;17.68;100.00
75192;BME280;63771;52.580;9.734;2023-07-28T00:38:39;99895.75;;;17.67;100.00
75192;BME280;63771;52.580;9.734;2023-07-28T00:41:04;99888.94;;;17.69;100.00
75192;BME280;63771;52.580;9.734;2023-07-28T00:43:29;99896.56;;;17.66;100.00
75192;BME280;63771;52.580;9.734;2023-07-28T00:45:55;99894.91;;;17.68;100.00
75192;BME280;63771;52.580;9.734;2023-07-28T00:48:20;99893.03;;;17.64;100.00
75192;BME280;63771;52.580;9.734;2023-07-28T00:50:47;99890.44;;;17.64;100.00
75192;BME280;63771;52.580;9.734;2023-07-28T00:53:13;99887.75;;;17.61;100.00
75192;BME280;63771;52.580;9.734;2023-07-28T00:55:39;99892.94;;;17.61;100.00
75192;BME280;63771;52.580;9.734;2023-07-28T00:58:04;99878.31;;;17.62;100.00
75192;BME280;63771;52.580;9.734;2023-07-28T01:00:30;99881.69;;;17.59;100.00
75192;BME280;63771;52.580;9.734;2023-07-28T01:02:56;99886.13;;;17.63;100.00
75192;BME280;63771;52.580;9.734;2023-07-28T01:05:29;99880.75;;;17.59;100.00
75192;BME280;63771;52.580;9.734;2023-07-28T01:08:11;99883.44;;;17.60;100.00
75192;BME280;63771;52.580;9.734;2023-07-28T01:10:39;99880.75;;;17.59;100.00
75192;BME280;63771;52.580;9.734;2023-07-28T01:13:05;99874.03;;;17.62;100.00
75192;BME280;63771;52.580;9.734;2023-07-28T01:15:31;99869.03;;;17.65;100.00
75192;BME280;63771;52.580;9.734;2023-07-28T01:17:56;99867.22;;;17.64;100.00
75192;BME280;63771;52.580;9.734;2023-07-28T01:20:22;99869.03;;;17.65;100.00
75192;BME280;63771;52.580;9.734;2023-07-28T01:23:44;99870.53;;;17.60;100.00
75192;BME280;63771;52.580;9.734;2023-07-28T01:26:09;99880.06;;;17.63;100.00
75192;BME280;63771;52.580;9.734;2023-07-28T01:28:36;99880.75;;;17.59;100.00
75192;BME280;63771;52.580;9.734;2023-07-28T01:31:03;99876.38;;;17.56;100.00
75192;BME280;63771;52.580;9.734;2023-07-28T01:33:29;99886.66;;;17.55;100.00
75192;BME280;63771;52.580;9.734;2023-07-28T01:35:54;99883.97;;;17.53;100.00
75192;BME280;63771;52.580;9.734;2023-07-28T01:38:19;99882.28;;;17.54;100.00
75192;BME280;63771;52.580;9.734;2023-07-28T01:40:45;99885.81;;;17.56;100.00
75192;BME280;63771;52.580;9.734;2023-07-28T01:43:10;99879.88;;;17.58;100.00
75192;BME280;63771;52.580;9.734;2023-07-28T01:45:35;99884.06;;;17.55;100.00
75192;BME280;63771;52.580;9.734;2023-07-28T01:48:01;99877.94;;;17.53;100.00
75192;BME280;63771;52.580;9.734;2023-07-28T01:50:26;99878.81;;;17.53;100.00
75192;BME280;63771;52.580;9.734;2023-07-28T01:52:51;99883.19;;;17.54;100.00
75192;BME280;63771;52.580;9.734;2023-07-28T01:55:17;99882.38;;;17.55;100.00
75192;BME280;63771;52.580;9.734;2023-07-28T01:57:50;99888.41;;;17.56;100.00
75192;BME280;63771;52.580;9.734;2023-07-28T02:00:16;99884.81;;;17.52;100.00
75192;BME280;63771;52.580;9.734;2023-07-28T02:02:42;99883.97;;;17.53;100.00
75192;BME280;63771;52.580;9.734;2023-07-28T02:05:07;99893.50;;;17.54;100.00
75192;BME280;63771;52.580;9.734;2023-07-28T02:07:33;99886.66;;;17.55;100.00
75192;BME280;63771;52.580;9.734;2023-07-28T02:09:58;99898.91;;;17.60;100.00
75192;BME280;63771;52.580;9.734;2023-07-28T02:12:23;99898.59;;;17.53;100.00
75192;BME280;63771;52.580;9.734;2023-07-28T02:14:48;99893.44;;;17.53;100.00
75192;BME280;63771;52.580;9.734;2023-07-28T02:17:14;99899.47;;;17.53;100.00
75192;BME280;63771;52.580;9.734;2023-07-28T02:19:39;99889.97;;;17.52;100.00
75192;BME280;63771;52.580;9.734;2023-07-28T02:22:05;99894.94;;;17.47;100.00
75192;BME280;63771;52.580;9.734;2023-07-28T02:24:30;99900.88;;;17.45;100.00
75192;BME280;63771;52.580;9.734;2023-07-28T02:26:55;99899.91;;;17.43;100.00
75192;BME280;63771;52.580;9.734;2023-07-28T02:29:21;99900.91;;;17.46;100.00
75192;BME280;63771;52.580;9.734;2023-07-28T02:31:46;99900.03;;;17.46;100.00
75192;BME280;63771;52.580;9.734;2023-07-28T02:34:11;99909.53;;;17.47;100.00
75192;BME280;63771;52.580;9.734;2023-07-28T02:36:37;99903.53;;;17.48;100.00
75192;BME280;63771;52.580;9.734;2023-07-28T02:39:02;99909.66;;;17.50;100.00
75192;BME280;63771;52.580;9.734;2023-07-28T02:41:27;99903.75;;;17.53;100.00
75192;BME280;63771;52.580;9.734;2023-07-28T02:43:53;99904.56;;;17.52;100.00
75192;BME280;63771;52.580;9.734;2023-07-28T02:46:18;99901.09;;;17.51;100.00
75192;BME280;63771;52.580;9.734;2023-07-28T02:48:43;99906.28;;;17.51;100.00
75192;BME280;63771;52.580;9.734;2023-07-28T02:51:09;99909.59;;;17.48;100.00
75192;BME280;63771;52.580;9.734;2023-07-28T02:53:34;99912.94;;;17.46;100.00
75192;BME280;63771;52.580;9.734;2023-07-28T02:55:59;99908.66;;;17.46;100.00
75192;BME280;63771;52.580;9.734;2023-07-28T02:58:24;99902.75;;;17.49;100.00
75192;BME280;63771;52.580;9.734;2023-07-28T03:00:51;99909.53;;;17.47;100.00
75192;BME280;63771;52.580;9.734;2023-07-28T03:03:17;99897.47;;;17.46;100.00
75192;BME280;63771;52.580;9.734;2023-07-28T03:05:42;99907.00;;;17.48;100.00
75192;BME280;63771;52.580;9.734;2023-07-28T03:08:07;99906.06;;;17.46;100.00
75192;BME280;63771;52.580;9.734;2023-07-28T03:10:33;99918.34;;;17.52;100.00
75192;BME280;63771;52.580;9.734;2023-07-28T03:12:58;99923.50;;;17.52;100.00
75192;BME280;63771;52.580;9.734;2023-07-28T03:15:23;99919.91;;;17.48;100.00
75192;BME280;63771;52.580;9.734;2023-07-28T03:17:51;99926.41;;;17.39;100.00
75192;BME280;63771;52.580;9.734;2023-07-28T03:20:18;99922.19;;;17.41;100.00
75192;BME280;63771;52.580;9.734;2023-07-28T03:22:43;99927.34;;;17.41;100.00
75192;BME280;63771;52.580;9.734;2023-07-28T03:25:09;99930.06;;;17.44;100.00
75192;BME280;63771;52.580;9.734;2023-07-28T03:27:34;99930.06;;;17.44;100.00
75192;BME280;63771;52.580;9.734;2023-07-28T03:30:00;99935.75;;;17.37;100.00
75192;BME280;63771;52.580;9.734;2023-07-28T03:32:25;99933.94;;;17.34;100.00
75192;BME280;63771;52.580;9.734;2023-07-28T03:34:50;99938.22;;;17.34;100.00
75192;BME280;63771;52.580;9.734;2023-07-28T03:37:15;99939.94;;;17.33;100.00
75192;BME280;63771;52.580;9.734;2023-07-28T03:39:41;99937.47;;;17.36;100.00
75192;BME280;63771;52.580;9.734;2023-07-28T03:42:07;99938.22;;;17.34;100.00
75192;BME280;63771;52.580;9.734;2023-07-28T03:44:32;99944.13;;;17.31;100.00
75192;BME280;63771;52.580;9.734;2023-07-28T03:46:57;99951.13;;;17.34;100.00
75192;BME280;63771;52.580;9.734;2023-07-28T03:49:23;99948.59;;;17.35;100.00
75192;BME280;63771;52.580;9.734;2023-07-28T03:51:48;99946.94;;;17.37;100.00
75192;BME280;63771;52.580;9.734;2023-07-28T03:54:13;99948.53;;;17.34;100.00
75192;BME280;63771;52.580;9.734;2023-07-28T03:56:39;99946.00;;;17.35;100.00
75192;BME280;63771;52.580;9.734;2023-07-28T03:59:04;99949.41;;;17.34;100.00
75192;BME280;63771;52.580;9.734;2023-07-28T04:01:30;99948.59;;;17.35;100.00
75192;BME280;63771;52.580;9.734;2023-07-28T04:03:56;99944.31;;;17.36;100.00
75192;BME280;63771;52.580;9.734;2023-07-28T04:06:48;99943.63;;;17.40;100.00
75192;BME280;63771;52.580;9.734;2023-07-28T04:09:19;99944.63;;;17.43;100.00
75192;BME280;63771;52.580;9.734;2023-07-28T04:11:44;99948.13;;;17.44;100.00
75192;BME280;63771;52.580;9.734;2023-07-28T04:14:09;99946.47;;;17.46;100.00
75192;BME280;63771;52.580;9.734;2023-07-28T04:16:35;99944.81;;;17.48;100.00
75192;BME280;63771;52.580;9.734;2023-07-28T04:19:01;99955.06;;;17.46;100.00
75192;BME280;63771;52.580;9.734;2023-07-28T04:21:26;99958.44;;;17.44;100.00
75192;BME280;63771;52.580;9.734;2023-07-28T04:23:52;99954.81;;;17.40;100.00
75192;BME280;63771;52.580;9.734;2023-07-28T04:26:17;99965.16;;;17.40;100.00
75192;BME280;63771;52.580;9.734;2023-07-28T04:28:43;99959.22;;;17.43;100.00
75192;BME280;63771;52.580;9.734;2023-07-28T04:31:08;99966.16;;;17.44;100.00
75192;BME280;63771;52.580;9.734;2023-07-28T04:33:34;99968.81;;;17.45;100.00
75192;BME280;63771;52.580;9.734;2023-07-28T04:36:02;99969.44;;;17.40;100.00
75192;BME280;63771;52.580;9.734;2023-07-28T04:38:27;99978.09;;;17.42;100.00
75192;BME280;63771;52.580;9.734;2023-07-28T04:40:53;99973.75;;;17.41;100.00
75192;BME280;63771;52.580;9.734;2023-07-28T04:43:18;99971.03;;;17.38;100.00
75192;BME280;63771;52.580;9.734;2023-07-28T04:45:44;99972.81;;;17.39;100.00
75192;BME280;63771;52.580;9.734;2023-07-28T04:48:09;99978.09;;;17.42;100.00
75192;BME280;63771;52.580;9.734;2023-07-28T04:50:35;99974.69;;;17.43;100.00
75192;BME280;63771;52.580;9.734;2023-07-28T04:53:01;99981.50;;;17.41;100.00
75192;BME280;63771;52.580;9.734;2023-07-28T04:55:26;99980.63;;;17.40;100.00
75192;BME280;63771;52.580;9.734;2023-07-28T04:57:52;99974.69;;;17.43;100.00
75192;BME280;63771;52.580;9.734;2023-07-28T05:00:18;99981.63;;;17.44;100.00
75192;BME280;63771;52.580;9.734;2023-07-28T05:02:43;99978.25;;;17.45;100.00
75192;BME280;63771;52.580;9.734;2023-07-28T05:05:08;99985.34;;;17.51;100.00
75192;BME280;63771;52.580;9.734;2023-07-28T05:07:34;99980.88;;;17.46;100.00
75192;BME280;63771;52.580;9.734;2023-07-28T05:09:59;99988.41;;;17.42;100.00
75192;BME280;63771;52.580;9.734;2023-07-28T05:12:24;99994.44;;;17.42;100.00
75192;BME280;63771;52.580;9.734;2023-07-28T05:14:50;99990.16;;;17.43;100.00
75192;BME280;63771;52.580;9.734;2023-07-28T05:17:15;99995.31;;;17.43;100.00
75192;BME280;63771;52.580;9.734;2023-07-28T05:19:40;99998.88;;;17.45;100.00
75192;BME280;63771;52.580;9.734;2023-07-28T05:22:06;100000.63;;;17.46;100.00
75192;BME280;63771;52.580;9.734;2023-07-28T05:24:32;100008.38;;;17.46;100.00
75192;BME280;63771;52.580;9.734;2023-07-28T05:26:58;100007.53;;;17.47;100.00
75192;BME280;63771;52.580;9.734;2023-07-28T05:29:23;100008.50;;;17.49;100.00
75192;BME280;63771;52.580;9.734;2023-07-28T05:31:48;100007.53;;;17.47;100.00
75192;BME280;63771;52.580;9.734;2023-07-28T05:34:14;100012.84;;;17.50;100.00
75192;BME280;63771;52.580;9.734;2023-07-28T05:36:39;100012.97;;;17.53;100.00
75192;BME280;63771;52.580;9.734;2023-07-28T05:39:05;100015.72;;;17.58;100.00
75192;BME280;63771;52.580;9.734;2023-07-28T05:41:30;100015.69;;;17.56;100.00
75192;BME280;63771;52.580;9.734;2023-07-28T05:43:55;100013.09;;;17.56;100.00
75192;BME280;63771;52.580;9.734;2023-07-28T05:46:21;100012.22;;;17.56;100.00
75192;BME280;63771;52.580;9.734;2023-07-28T05:48:46;100016.63;;;17.58;100.00
75192;BME280;63771;52.580;9.734;2023-07-28T05:51:11;100019.19;;;17.58;100.00
75192;BME280;63771;52.580;9.734;2023-07-28T05:53:37;100021.78;;;17.58;100.00
75192;BME280;63771;52.580;9.734;2023-07-28T05:56:02;100019.19;;;17.58;100.00
75192;BME280;63771;52.580;9.734;2023-07-28T05:58:27;100017.69;;;17.63;100.00
75192;BME280;63771;52.580;9.734;2023-07-28T06:00:53;100018.66;;;17.65;100.00
75192;BME280;63771;52.580;9.734;2023-07-28T06:03:18;100026.41;;;17.65;100.00
75192;BME280;63771;52.580;9.734;2023-07-28T06:05:43;100021.91;;;17.61;100.00
75192;BME280;63771;52.580;9.734;2023-07-28T06:08:09;100030.59;;;17.63;100.00
75192;BME280;63771;52.580;9.734;2023-07-28T06:10:34;100029.84;;;17.66;100.00
75192;BME280;63771;52.580;9.734;2023-07-28T06:13:00;100031.81;;;17.71;100.00
75192;BME280;63771;52.580;9.734;2023-07-28T06:15:26;100037.06;;;17.73;100.00
75192;BME280;63771;52.580;9.734;2023-07-28T06:17:51;100033.03;;;17.80;100.00
75192;BME280;63771;52.580;9.734;2023-07-28T06:20:17;100027.19;;;17.84;100.00
75192;BME280;63771;52.580;9.734;2023-07-28T06:22:42;100036.88;;;17.89;100.00
75192;BME280;63771;52.580;9.734;2023-07-28T06:25:07;100035.44;;;17.96;100.00
75192;BME280;63771;52.580;9.734;2023-07-28T06:27:33;100040.84;;;18.02;100.00
75192;BME280;63771;52.580;9.734;2023-07-28T06:29:58;100038.34;;;18.04;100.00
75192;BME280;63771;52.580;9.734;2023-07-28T06:32:23;100044.63;;;18.10;100.00
75192;BME280;63771;52.580;9.734;2023-07-28T06:34:50;100044.63;;;18.10;100.00
75192;BME280;63771;52.580;9.734;2023-07-28T06:37:15;100058.59;;;18.15;100.00
75192;BME280;63771;52.580;9.734;2023-07-28T06:39:41;100057.66;;;18.13;100.00
75192;BME280;63771;52.580;9.734;2023-07-28T06:42:07;100062.81;;;18.13;100.00
75192;BME280;63771;52.580;9.734;2023-07-28T06:44:32;100059.41;;;18.14;100.00
75192;BME280;63771;52.580;9.734;2023-07-28T06:46:58;100062.25;;;18.20;100.00
75192;BME280;63771;52.580;9.734;2023-07-28T06:49:23;100062.50;;;18.26;100.00
75192;BME280;63771;52.580;9.734;2023-07-28T06:51:48;100053.16;;;18.30;100.00
75192;BME280;63771;52.580;9.734;2023-07-28T06:54:14;100064.50;;;18.34;100.00
75192;BME280;63771;52.580;9.734;2023-07-28T06:56:40;100056.06;;;18.38;100.00
75192;BME280;63771;52.580;9.734;2023-07-28T06:59:06;100073.19;;;18.36;100.00
75192;BME280;63771;52.580;9.734;2023-07-28T07:01:32;100074.06;;;18.36;100.00
75192;BME280;63771;52.580;9.734;2023-07-28T07:03:58;100074.06;;;18.36;100.00
75192;BME280;63771;52.580;9.734;2023-07-28T07:06:23;100076.84;;;18.41;100.00
75192;BME280;63771;52.580;9.734;2023-07-28T07:08:48;100088.94;;;18.42;100.00
75192;BME280;63771;52.580;9.734;2023-07-28T07:11:13;100078.78;;;18.46;100.00
75192;BME280;63771;52.580;9.734;2023-07-28T07:13:39;100084.03;;;18.48;100.00
75192;BME280;63771;52.580;9.734;2023-07-28T07:16:05;100086.66;;;18.49;100.00
75192;BME280;63771;52.580;9.734;2023-07-28T07:18:31;100087.66;;;18.53;100.00
75192;BME280;63771;52.580;9.734;2023-07-28T07:21:01;100087.03;;;18.59;100.00
75192;BME280;63771;52.580;9.734;2023-07-28T07:23:27;100091.16;;;18.54;100.00
75192;BME280;63771;52.580;9.734;2023-07-28T07:25:53;100093.09;;;18.59;100.00
75192;BME280;63771;52.580;9.734;2023-07-28T07:28:18;100091.66;;;18.67;100.00
75192;BME280;63771;52.580;9.734;2023-07-28T07:30:44;100094.59;;;18.75;100.00
75192;BME280;63771;52.580;9.734;2023-07-28T07:33:10;100099.13;;;18.81;100.00
75192;BME280;63771;52.580;9.734;2023-07-28T07:35:36;100100.88;;;18.82;100.00
75192;BME280;63771;52.580;9.734;2023-07-28T07:38:03;100100.06;;;18.83;100.00
75192;BME280;63771;52.580;9.734;2023-07-28T07:40:28;100107.81;;;18.83;100.00
75192;BME280;63771;52.580;9.734;2023-07-28T07:42:54;100104.28;;;18.81;100.00
75192;BME280;63771;52.580;9.734;2023-07-28T07:45:19;100102.41;;;18.76;100.00
75192;BME280;63771;52.580;9.734;2023-07-28T07:47:44;100105.03;;;18.78;100.00
75192;BME280;63771;52.580;9.734;2023-07-28T07:50:10;100110.13;;;18.75;100.00
75192;BME280;63771;52.580;9.734;2023-07-28T07:52:36;100122.91;;;18.72;100.00
75192;BME280;63771;52.580;9.734;2023-07-28T07:55:03;100124.47;;;18.68;100.00
75192;BME280;63771;52.580;9.734;2023-07-28T07:57:29;100132.31;;;18.70;100.00
75192;BME280;63771;52.580;9.734;2023-07-28T07:59:54;100124.34;;;18.65;100.00
75192;BME280;63771;52.580;9.734;2023-07-28T08:02:20;100132.78;;;18.61;100.00
75192;BME280;63771;52.580;9.734;2023-07-28T08:04:45;100136.88;;;18.56;100.00
75192;BME280;63771;52.580;9.734;2023-07-28T08:07:11;100132.41;;;18.52;100.00
75192;BME280;63771;52.580;9.734;2023-07-28T08:09:36;100136.75;;;18.53;100.00
75192;BME280;63771;52.580;9.734;2023-07-28T08:12:02;100144.44;;;18.51;100.00
75192;BME280;63771;52.580;9.734;2023-07-28T08:14:28;100145.31;;;18.52;100.00
75192;BME280;63771;52.580;9.734;2023-07-28T08:16:53;100149.81;;;18.56;100.00
75192;BME280;63771;52.580;9.734;2023-07-28T08:19:19;100145.66;;;18.60;100.00
75192;BME280;63771;52.580;9.734;2023-07-28T08:21:44;100152.63;;;18.62;100.00
75192;BME280;63771;52.580;9.734;2023-07-28T08:24:10;100156.88;;;18.60;100.00
75192;BME280;63771;52.580;9.734;2023-07-28T08:26:36;100157.75;;;18.61;100.00
75192;BME280;63771;52.580;9.734;2023-07-28T08:29:01;100162.13;;;18.63;100.00
75192;BME280;63771;52.580;9.734;2023-07-28T08:31:27;100159.84;;;18.69;100.00
75192;BME280;63771;52.580;9.734;2023-07-28T08:33:52;100167.78;;;18.74;100.00
75192;BME280;63771;52.580;9.734;2023-07-28T08:36:17;100162.00;;;18.80;100.00
75192;BME280;63771;52.580;9.734;2023-07-28T08:38:43;100164.56;;;18.80;100.00
75192;BME280;63771;52.580;9.734;2023-07-28T08:41:10;100162.09;;;18.83;100.00
75192;BME280;63771;52.580;9.734;2023-07-28T08:43:35;100167.31;;;18.84;100.00
75192;BME280;63771;52.580;9.734;2023-07-28T08:46:00;100167.59;;;18.90;100.00
75192;BME280;63771;52.580;9.734;2023-07-28T08:48:26;100172.22;;;18.99;100.00
75192;BME280;63771;52.580;9.734;2023-07-28T08:50:52;100168.06;;;19.02;100.00
75192;BME280;63771;52.580;9.734;2023-07-28T08:53:18;100186.44;;;19.10;100.00
75192;BME280;63771;52.580;9.734;2023-07-28T08:55:43;100172.81;;;19.14;100.00
75192;BME280;63771;52.580;9.734;2023-07-28T08:58:16;100181.63;;;19.19;100.00
75192;BME280;63771;52.580;9.734;2023-07-28T09:00:42;100183.50;;;19.23;100.00
75192;BME280;63771;52.580;9.734;2023-07-28T09:03:10;100175.22;;;19.32;100.00
75192;BME280;63771;52.580;9.734;2023-07-28T09:05:35;100178.06;;;19.38;100.00
75192;BME280;63771;52.580;9.734;2023-07-28T09:08:01;100180.84;;;19.44;100.00
75192;BME280;63771;52.580;9.734;2023-07-28T09:10:43;100181.03;;;19.49;100.00
75192;BME280;63771;52.580;9.734;2023-07-28T09:13:10;100189.84;;;19.54;100.00
75192;BME280;63771;52.580;9.734;2023-07-28T09:15:36;100178.66;;;19.55;100.00
75192;BME280;63771;52.580;9.734;2023-07-28T09:18:02;100180.69;;;19.62;100.00
75192;BME280;63771;52.580;9.734;2023-07-28T09:20:33;100184.28;;;19.66;100.00
75192;BME280;63771;52.580;9.734;2023-07-28T09:23:00;100188.69;;;19.68;100.00
75192;BME280;63771;52.580;9.734;2023-07-28T09:25:28;100185.44;;;19.74;100.00
75192;BME280;63771;52.580;9.734;2023-07-28T09:27:54;100195.34;;;19.86;100.00
75192;BME280;63771;52.580;9.734;2023-07-28T09:30:21;100189.69;;;19.96;98.54
75192;BME280;63771;52.580;9.734;2023-07-28T09:32:51;100191.78;;;20.06;99.59
75192;BME280;63771;52.580;9.734;2023-07-28T09:35:17;100185.97;;;20.13;97.10
75192;BME280;63771;52.580;9.734;2023-07-28T09:37:47;100199.13;;;20.19;97.70
75192;BME280;63771;52.580;9.734;2023-07-28T09:40:16;100182.81;;;20.22;96.54
75192;BME280;63771;52.580;9.734;2023-07-28T09:42:43;100179.59;;;20.29;96.46
75192;BME280;63771;52.580;9.734;2023-07-28T09:45:10;100180.03;;;20.41;95.50
75192;BME280;63771;52.580;9.734;2023-07-28T09:47:37;100181.97;;;20.47;96.20
75192;BME280;63771;52.580;9.734;2023-07-28T09:50:04;100183.00;;;20.52;92.79
75192;BME280;63771;52.580;9.734;2023-07-28T09:52:34;100190.81;;;20.53;91.45
75192;BME280;63771;52.580;9.734;2023-07-28T09:55:05;100203.94;;;20.58;91.90
75192;BME280;63771;52.580;9.734;2023-07-28T09:57:33;100192.00;;;20.63;94.00
75192;BME280;63771;52.580;9.734;2023-07-28T10:00:02;100190.53;;;20.71;92.65
75192;BME280;63771;52.580;9.734;2023-07-28T10:02:28;100188.28;;;20.82;91.66
75192;BME280;63771;52.580;9.734;2023-07-28T10:04:53;100192.06;;;20.92;91.63
75192;BME280;63771;52.580;9.734;2023-07-28T10:07:20;100197.28;;;20.93;90.12
75192;BME280;63771;52.580;9.734;2023-07-28T10:09:46;100198.25;;;20.97;89.98
75192;BME280;63771;52.580;9.734;2023-07-28T10:12:19;100193.81;;;20.93;89.00
75192;BME280;63771;52.580;9.734;2023-07-28T10:15:00;100191.91;;;20.87;90.70
75192;BME280;63771;52.580;9.734;2023-07-28T10:17:31;100199.50;;;20.81;88.60
75192;BME280;63771;52.580;9.734;2023-07-28T10:19:57;100192.28;;;20.72;88.65
75192;BME280;63771;52.580;9.734;2023-07-28T10:22:26;100199.72;;;20.62;88.49
75192;BME280;63771;52.580;9.734;2023-07-28T10:27:29;100198.97;;;20.64;90.48
75192;BME280;63771;52.580;9.734;2023-07-28T10:29:59;100200.91;;;20.71;87.45
75192;BME280;63771;52.580;9.734;2023-07-28T10:32:28;100196.94;;;20.82;88.79
75192;BME280;63771;52.580;9.734;2023-07-28T10:35:22;100186.78;;;20.89;89.84
75192;BME280;63771;52.580;9.734;2023-07-28T10:37:48;100190.53;;;20.98;87.66
75192;BME280;63771;52.580;9.734;2023-07-28T10:40:33;100200.50;;;21.13;88.40
75192;BME280;63771;52.580;9.734;2023-07-28T10:43:00;100193.03;;;21.24;85.74
75192;BME280;63771;52.580;9.734;2023-07-28T10:45:28;100195.09;;;21.32;84.05
75192;BME280;63771;52.580;9.734;2023-07-28T10:47:54;100196.09;;;21.38;84.55
75192;BME280;63771;52.580;9.734;2023-07-28T10:50:31;100199.72;;;21.43;83.06
75192;BME280;63771;52.580;9.734;2023-07-28T10:52:57;100201.44;;;21.42;81.64
75192;BME280;63771;52.580;9.734;2023-07-28T10:55:24;100203.91;;;21.39;82.44
75192;BME280;63771;52.580;9.734;2023-07-28T10:57:50;100201.41;;;21.41;83.82
75192;BME280;63771;52.580;9.734;2023-07-28T11:00:18;100204.91;;;21.43;82.79
75192;BME280;63771;52.580;9.734;2023-07-28T11:02:48;100199.88;;;21.49;81.64
75192;BME280;63771;52.580;9.734;2023-07-28T11:05:19;100204.38;;;21.54;81.73
75192;BME280;63771;52.580;9.734;2023-07-28T11:07:45;100208.78;;;21.57;80.46
75192;BME280;63771;52.580;9.734;2023-07-28T11:10:12;100202.09;;;21.65;79.71
75192;BME280;63771;52.580;9.734;2023-07-28T11:12:42;100200.50;;;21.70;79.33
75192;BME280;63771;52.580;9.734;2023-07-28T11:15:10;100194.41;;;21.68;80.24
75192;BME280;63771;52.580;9.734;2023-07-28T11:17:43;100197.84;;;21.67;80.88
75192;BME280;63771;52.580;9.734;2023-07-28T11:20:15;100202.31;;;21.73;81.85
75192;BME280;63771;52.580;9.734;2023-07-28T11:22:45;100199.75;;;21.74;82.24
75192;BME280;63771;52.580;9.734;2023-07-28T11:25:12;100197.19;;;21.76;82.92
75192;BME280;63771;52.580;9.734;2023-07-28T11:27:39;100193.16;;;21.85;83.47
75192;BME280;63771;52.580;9.734;2023-07-28T11:30:06;100200.38;;;21.97;82.52
75192;BME280;63771;52.580;9.734;2023-07-28T11:32:34;100194.44;;;22.01;80.76
75192;BME280;63771;52.580;9.734;2023-07-28T11:35:06;100201.53;;;22.07;79.80
75192;BME280;63771;52.580;9.734;2023-07-28T11:37:33;100205.84;;;22.06;80.25
75192;BME280;63771;52.580;9.734;2023-07-28T11:40:00;100210.16;;;22.06;80.79
75192;BME280;63771;52.580;9.734;2023-07-28T11:42:30;100208.47;;;22.08;79.44
75192;BME280;63771;52.580;9.734;2023-07-28T11:44:55;100207.88;;;22.17;76.10
75192;BME280;63771;52.580;9.734;2023-07-28T11:47:21;100204.59;;;22.24;77.99
75192;BME280;63771;52.580;9.734;2023-07-28T11:49:47;100203.97;;;22.32;76.28
75192;BME280;63771;52.580;9.734;2023-07-28T11:52:13;100206.78;;;22.40;73.53
75192;BME280;63771;52.580;9.734;2023-07-28T11:54:38;100211.38;;;22.50;73.06
75192;BME280;63771;52.580;9.734;2023-07-28T11:57:07;100206.38;;;22.58;73.34
75192;BME280;63771;52.580;9.734;2023-07-28T11:59:34;100197.84;;;22.65;73.21
75192;BME280;63771;52.580;9.734;2023-07-28T12:02:04;100204.03;;;22.69;72.71
75192;BME280;63771;52.580;9.734;2023-07-28T12:04:39;100198.03;;;22.71;73.51
75192;BME280;63771;52.580;9.734;2023-07-28T12:07:16;100205.03;;;22.75;73.12
75192;BME280;63771;52.580;9.734;2023-07-28T12:12:15;100216.69;;;22.88;71.22
75192;BME280;63771;52.580;9.734;2023-07-28T12:14:40;100211.72;;;22.99;68.60
75192;BME280;63771;52.580;9.734;2023-07-28T12:17:19;100222.31;;;23.06;70.53
75192;BME280;63771;52.580;9.734;2023-07-28T12:20:01;100220.44;;;23.01;69.05
75192;BME280;63771;52.580;9.734;2023-07-28T12:22:27;100220.31;;;22.95;69.38
75192;BME280;63771;52.580;9.734;2023-07-28T12:24:56;100226.34;;;22.94;69.13
75192;BME280;63771;52.580;9.734;2023-07-28T12:27:22;100238.66;;;23.01;71.85
75192;BME280;63771;52.580;9.734;2023-07-28T12:29:51;100226.59;;;23.04;70.92
75192;BME280;63771;52.580;9.734;2023-07-28T12:32:17;100228.56;;;23.13;71.12
75192;BME280;63771;52.580;9.734;2023-07-28T12:34:42;100233.03;;;23.18;68.75
75192;BME280;63771;52.580;9.734;2023-07-28T12:37:07;100233.75;;;23.13;68.08
75192;BME280;63771;52.580;9.734;2023-07-28T12:39:36;100235.38;;;23.08;69.10
75192;BME280;63771;52.580;9.734;2023-07-28T12:42:05;100244.16;;;23.13;70.60
75192;BME280;63771;52.580;9.734;2023-07-28T12:44:30;100235.50;;;23.14;70.26
75192;BME280;63771;52.580;9.734;2023-07-28T12:46:56;100239.94;;;23.18;71.30
75192;BME280;63771;52.580;9.734;2023-07-28T12:49:21;100235.66;;;23.20;69.09
75192;BME280;63771;52.580;9.734;2023-07-28T12:51:46;100237.47;;;23.24;71.86